Time;durP1;ratioP1;P1;durP2;ratioP2;P2;SDS_P1;SDS_P2;PMS_P1;PMS_P2;Temp;Humidity;BMP_temperature;BMP_pressure;BME280_temperature;BME280_humidity;BME280_pressure;Samples;Min_cycle;Max_cycle;Signal;HPM_P1;HPM_P2
2023/07/11 00:01:22;;;;;;;3.93;3.80;;;19.40;99.90;;;;;;4966345;29;20198;-84
2023/07/11 00:03:47;;;;;;;6.43;4.10;;;19.40;99.90;;;;;;4961926;29;20233;-85
2023/07/11 00:06:17;;;;;;;4.80;4.60;;;19.50;99.90;;;;;;4962575;29;20230;-84
2023/07/11 00:08:42;;;;;;;3.90;3.80;;;19.50;99.90;;;;;;4957786;28;20222;-84
2023/07/11 00:11:10;;;;;;;4.60;4.40;;;19.50;99.90;;;;;;4966297;29;20434;-84
2023/07/11 00:13:37;;;;;;;4.80;4.40;;;19.50;99.90;;;;;;4961231;29;20730;-84
2023/07/11 00:16:07;;;;;;;3.77;3.67;;;19.60;99.90;;;;;;4963280;29;20434;-84
2023/07/11 00:18:32;;;;;;;4.33;4.07;;;19.60;99.90;;;;;;4958629;29;20437;-83
2023/07/11 00:20:59;;;;;;;4.23;3.80;;;19.70;99.90;;;;;;4965362;28;20536;-82
2023/07/11 00:23:25;;;;;;;3.83;3.63;;;19.70;99.90;;;;;;4963173;29;20465;-84
2023/07/11 00:25:50;;;;;;;4.63;4.43;;;19.70;99.90;;;;;;4966053;29;20470;-84
2023/07/11 00:28:16;;;;;;;7.30;4.77;;;19.80;99.90;;;;;;4963166;29;20460;-84
2023/07/11 00:30:41;;;;;;;4.73;4.27;;;19.80;99.90;;;;;;4965205;29;20194;-84
2023/07/11 00:33:09;;;;;;;4.73;4.40;;;19.90;99.90;;;;;;4963187;29;20222;-83
2023/07/11 00:35:36;;;;;;;4.73;4.23;;;20.00;99.90;;;;;;4966099;29;20445;-83
2023/07/11 00:38:02;;;;;;;4.43;4.13;;;19.90;99.90;;;;;;4941983;29;20446;-83
2023/07/11 00:40:27;;;;;;;5.03;4.63;;;19.80;99.90;;;;;;4962102;29;20434;-81
2023/07/11 00:42:54;;;;;;;5.10;4.70;;;19.80;99.90;;;;;;4961002;28;20202;-84
2023/07/11 00:45:56;;;;;;;4.30;3.90;;;19.80;99.90;;;;;;4965080;29;20214;-83
2023/07/11 00:48:23;;;;;;;4.27;4.00;;;19.80;99.90;;;;;;4969319;29;20500;-84
2023/07/11 00:50:50;;;;;;;4.53;4.30;;;19.80;99.90;;;;;;4967392;28;20438;-83
2023/07/11 00:53:17;;;;;;;4.37;4.07;;;19.90;99.90;;;;;;4969638;29;20433;-84
2023/07/11 00:55:44;;;;;;;4.57;4.37;;;20.00;99.90;;;;;;4969122;29;20445;-84
2023/07/11 00:58:10;;;;;;;5.10;4.80;;;20.10;99.90;;;;;;4970021;29;20427;-83
2023/07/11 01:00:36;;;;;;;5.07;4.70;;;20.00;99.90;;;;;;4974312;29;20422;-84
2023/07/11 01:03:02;;;;;;;5.23;4.83;;;20.00;99.90;;;;;;4970953;29;20476;-83
2023/07/11 01:05:27;;;;;;;4.53;4.17;;;19.90;99.90;;;;;;4974495;29;20195;-82
2023/07/11 01:07:56;;;;;;;4.70;4.40;;;19.80;99.90;;;;;;4971467;29;20848;-84
2023/07/11 01:10:22;;;;;;;4.30;4.00;;;19.70;99.90;;;;;;4967337;29;20193;-83
2023/07/11 01:12:48;;;;;;;5.00;4.67;;;19.60;99.90;;;;;;4965719;29;20434;-82
2023/07/11 01:15:14;;;;;;;4.30;4.20;;;19.60;99.90;;;;;;4969222;28;20342;-84
2023/07/11 01:17:40;;;;;;;5.17;4.67;;;19.50;99.90;;;;;;4969646;29;20445;-83
2023/07/11 01:20:09;;;;;;;4.27;4.17;;;19.50;99.90;;;;;;4964060;29;20450;-84
2023/07/11 01:22:38;;;;;;;3.80;3.60;;;19.40;99.90;;;;;;4967624;29;20418;-83
2023/07/11 01:25:10;;;;;;;4.43;4.23;;;19.40;99.90;;;;;;4962429;29;20480;-83
2023/07/11 01:27:38;;;;;;;4.50;4.20;;;19.30;99.90;;;;;;4965332;29;20453;-83
2023/07/11 01:30:07;;;;;;;4.53;4.30;;;19.40;99.90;;;;;;4962981;28;20461;-83
2023/07/11 01:32:33;;;;;;;4.73;4.43;;;19.20;99.90;;;;;;4961696;29;20485;-83
2023/07/11 01:35:01;;;;;;;4.40;4.30;;;18.90;99.90;;;;;;4964108;29;20473;-83
2023/07/11 01:37:27;;;;;;;4.97;4.67;;;18.80;99.90;;;;;;4963907;29;20448;-84
2023/07/11 01:39:52;;;;;;;5.03;4.83;;;18.80;99.90;;;;;;4945998;29;20482;-83
2023/07/11 01:42:18;;;;;;;5.23;4.77;;;18.80;99.90;;;;;;4965116;29;20183;-83
2023/07/11 01:44:44;;;;;;;4.73;4.27;;;18.80;99.90;;;;;;4963977;29;20260;-84
2023/07/11 01:47:10;;;;;;;4.30;4.10;;;18.80;99.90;;;;;;4965907;29;20186;-84
2023/07/11 01:49:36;;;;;;;5.03;4.73;;;18.70;99.90;;;;;;4962095;28;20445;-84
2023/07/11 01:52:08;;;;;;;4.20;4.10;;;18.70;99.90;;;;;;4966078;29;20210;-84
2023/07/11 01:54:33;;;;;;;4.40;4.30;;;18.60;99.90;;;;;;4959862;28;20274;-83
2023/07/11 01:56:59;;;;;;;10.03;5.10;;;18.50;99.90;;;;;;4968239;29;20434;-84
2023/07/11 01:59:26;;;;;;;5.53;5.13;;;18.60;99.90;;;;;;4966633;28;20205;-83
2023/07/11 02:01:51;;;;;;;4.47;4.30;;;18.60;99.90;;;;;;4967296;28;20205;-84
2023/07/11 02:04:21;;;;;;;5.10;4.70;;;18.60;99.90;;;;;;4963807;28;20458;-83
2023/07/11 02:06:50;;;;;;;5.40;4.33;;;18.50;99.90;;;;;;4966949;29;20309;-84
2023/07/11 02:09:16;;;;;;;4.87;4.50;;;18.60;99.90;;;;;;4962284;28;20446;-84
2023/07/11 02:11:42;;;;;;;4.67;4.43;;;18.60;99.90;;;;;;4965994;28;20465;-82
2023/07/11 02:14:08;;;;;;;5.03;4.83;;;18.60;99.90;;;;;;4960819;29;20872;-82
2023/07/11 02:16:33;;;;;;;4.63;4.33;;;18.60;99.90;;;;;;4970572;29;20246;-83
2023/07/11 02:18:59;;;;;;;4.67;4.40;;;18.50;99.90;;;;;;4966674;29;20461;-82
2023/07/11 02:21:24;;;;;;;5.27;4.60;;;18.60;99.90;;;;;;4970295;28;20199;-82
2023/07/11 02:23:50;;;;;;;4.23;4.13;;;18.60;99.90;;;;;;4961286;29;20210;-82
2023/07/11 02:26:16;;;;;;;4.77;4.47;;;18.60;99.90;;;;;;4967754;29;20205;-82
2023/07/11 02:28:41;;;;;;;5.17;4.90;;;18.50;99.90;;;;;;4960268;29;20381;-81
2023/07/11 02:31:07;;;;;;;4.97;4.60;;;18.40;99.90;;;;;;4962002;29;20738;-83
2023/07/11 02:33:33;;;;;;;4.43;4.23;;;18.40;99.90;;;;;;4969635;29;20230;-82
2023/07/11 02:35:58;;;;;;;4.90;4.43;;;18.40;99.90;;;;;;4970798;29;20194;-82
2023/07/11 02:38:24;;;;;;;3.80;3.80;;;18.50;99.90;;;;;;4946747;29;20199;-82
2023/07/11 02:40:49;;;;;;;4.63;4.33;;;18.50;99.90;;;;;;4954403;28;20178;-83
2023/07/11 02:43:16;;;;;;;5.07;4.70;;;18.50;99.90;;;;;;4961454;28;20207;-84
2023/07/11 02:45:41;;;;;;;4.67;4.37;;;18.60;99.90;;;;;;4958170;29;20194;-83
2023/07/11 02:48:07;;;;;;;4.50;4.20;;;18.50;99.90;;;;;;4948398;28;20553;-83
2023/07/11 02:50:38;;;;;;;3.67;3.57;;;18.50;99.90;;;;;;4953059;28;20219;-83
2023/07/11 02:53:04;;;;;;;4.53;4.43;;;18.60;99.90;;;;;;4946856;29;20337;-83
2023/07/11 02:55:29;;;;;;;4.30;4.10;;;18.60;99.90;;;;;;4950925;28;20549;-83
2023/07/11 02:57:55;;;;;;;4.47;4.27;;;18.60;99.90;;;;;;4952270;28;20944;-84
2023/07/11 03:00:20;;;;;;;4.50;4.30;;;18.60;99.90;;;;;;4955656;28;20193;-82
2023/07/11 03:02:46;;;;;;;4.10;4.00;;;18.60;99.90;;;;;;4957673;28;20194;-82
2023/07/11 03:05:13;;;;;;;5.83;5.00;;;18.50;99.90;;;;;;4955787;28;20223;-83
2023/07/11 03:07:38;;;;;;;5.33;4.67;;;18.50;99.90;;;;;;4958905;28;21092;-83
2023/07/11 03:10:04;;;;;;;4.43;4.20;;;18.60;99.90;;;;;;4961070;29;20431;-83
2023/07/11 03:12:30;;;;;;;4.40;4.10;;;18.50;99.90;;;;;;4962863;28;20198;-82
2023/07/11 03:14:55;;;;;;;5.90;4.67;;;18.40;99.90;;;;;;4965271;28;20434;-84
2023/07/11 03:17:21;;;;;;;4.50;4.07;;;18.30;99.90;;;;;;4959888;28;20195;-84
2023/07/11 03:19:47;;;;;;;4.37;4.17;;;18.20;99.90;;;;;;4966274;29;20186;-83
2023/07/11 03:22:12;;;;;;;4.20;4.10;;;18.30;99.90;;;;;;4962748;28;20670;-84
2023/07/11 03:24:38;;;;;;;4.10;3.90;;;18.30;99.90;;;;;;4957329;29;20277;-83
2023/07/11 03:27:04;;;;;;;4.60;4.40;;;18.30;99.90;;;;;;4954535;28;20194;-84
2023/07/11 03:29:29;;;;;;;4.30;4.20;;;18.30;99.90;;;;;;4955978;29;20262;-83
2023/07/11 03:31:55;;;;;;;3.77;3.67;;;18.40;99.90;;;;;;4935604;28;20469;-84
2023/07/11 03:34:20;;;;;;;3.77;3.67;;;18.40;99.90;;;;;;4954659;29;20177;-83
2023/07/11 03:36:46;;;;;;;4.23;3.90;;;18.50;99.90;;;;;;4961326;28;20222;-84
2023/07/11 03:39:12;;;;;;;4.43;4.23;;;18.50;99.90;;;;;;4963469;28;20209;-83
2023/07/11 03:41:38;;;;;;;4.43;4.00;;;18.40;99.90;;;;;;4966846;28;20183;-83
2023/07/11 03:44:03;;;;;;;4.17;4.00;;;18.40;99.90;;;;;;4961729;28;20462;-82
2023/07/11 03:46:29;;;;;;;4.10;3.87;;;18.40;99.90;;;;;;4967948;29;20194;-83
2023/07/11 03:48:59;;;;;;;9.70;8.17;;;18.40;99.90;;;;;;4961817;29;20201;-83
2023/07/11 03:51:25;;;;;;;4.37;4.10;;;18.40;99.90;;;;;;4965743;29;20182;-83
2023/07/11 03:53:50;;;;;;;3.60;3.50;;;18.40;99.90;;;;;;4963688;29;20441;-82
2023/07/11 03:56:16;;;;;;;2.90;2.90;;;18.50;99.90;;;;;;4960417;28;20301;-83
2023/07/11 03:58:41;;;;;;;3.93;3.63;;;18.60;99.90;;;;;;4943661;28;20785;-82
2023/07/11 04:01:07;;;;;;;6.30;4.27;;;18.60;99.90;;;;;;4944874;28;20253;-82
2023/07/11 04:03:32;;;;;;;3.67;3.47;;;18.70;99.90;;;;;;4937694;29;20726;-81
2023/07/11 04:05:58;;;;;;;5.03;3.97;;;18.80;99.90;;;;;;4937407;29;20179;-82
2023/07/11 04:08:23;;;;;;;3.73;3.63;;;18.80;99.90;;;;;;4948089;28;20206;-82
2023/07/11 04:10:49;;;;;;;4.23;4.03;;;18.80;99.90;;;;;;4953039;29;20195;-83
2023/07/11 04:13:14;;;;;;;4.70;4.47;;;18.90;99.90;;;;;;4954221;28;20190;-83
2023/07/11 04:15:40;;;;;;;4.13;3.90;;;19.00;99.90;;;;;;4955007;29;21636;-84
2023/07/11 04:18:06;;;;;;;4.00;3.80;;;19.00;99.90;;;;;;4946136;28;20214;-82
2023/07/11 04:20:35;;;;;;;4.43;4.03;;;19.00;99.90;;;;;;4943507;28;20265;-81
2023/07/11 04:23:01;;;;;;;4.03;3.70;;;19.20;99.90;;;;;;4944135;28;20450;-82
2023/07/11 04:25:26;;;;;;;3.67;3.47;;;19.30;99.90;;;;;;4951563;28;20997;-82
2023/07/11 04:27:52;;;;;;;3.37;3.27;;;19.30;99.90;;;;;;4940859;28;20434;-82
2023/07/11 04:30:17;;;;;;;3.60;3.40;;;19.60;99.90;;;;;;4944141;28;20210;-83
2023/07/11 04:32:43;;;;;;;2.57;2.57;;;19.80;99.90;;;;;;4949151;28;20222;-82
2023/07/11 04:35:14;;;;;;;2.73;2.67;;;20.10;99.90;;;;;;4944888;28;20199;-80
2023/07/11 04:37:39;;;;;;;2.27;2.17;;;20.40;99.90;;;;;;4945587;28;20278;-82
2023/07/11 04:40:06;;;;;;;2.83;2.73;;;20.70;99.90;;;;;;4941242;28;20549;-82
2023/07/11 04:42:32;;;;;;;3.30;2.90;;;21.00;99.90;;;;;;4947843;28;20190;-82
2023/07/11 04:44:57;;;;;;;3.30;3.20;;;21.20;99.90;;;;;;4944190;29;20477;-84
2023/07/11 04:47:23;;;;;;;3.33;2.67;;;21.40;99.90;;;;;;4946703;28;20191;-82
2023/07/11 04:49:49;;;;;;;3.10;2.70;;;21.80;99.90;;;;;;4938815;28;20253;-82
2023/07/11 04:52:17;;;;;;;2.70;2.60;;;22.10;99.90;;;;;;4942875;29;20249;-82
2023/07/11 04:54:44;;;;;;;3.20;3.00;;;22.50;99.90;;;;;;4941658;28;20625;-82
2023/07/11 04:57:09;;;;;;;3.20;2.90;;;22.70;99.90;;;;;;4948891;29;20914;-83
2023/07/11 04:59:35;;;;;;;4.23;3.10;;;22.90;99.90;;;;;;4943531;28;20445;-83
2023/07/11 05:02:00;;;;;;;2.70;2.60;;;23.30;99.90;;;;;;4947732;29;20193;-83
2023/07/11 05:04:26;;;;;;;2.93;2.50;;;23.50;99.90;;;;;;4953326;28;20206;-83
2023/07/11 05:06:52;;;;;;;2.30;2.20;;;23.60;99.90;;;;;;4964038;28;20194;-83
2023/07/11 05:09:17;;;;;;;3.03;2.80;;;23.90;99.00;;;;;;4951850;28;20221;-84
2023/07/11 05:11:43;;;;;;;2.87;2.80;;;24.10;98.30;;;;;;4953670;28;20906;-82
2023/07/11 05:14:09;;;;;;;2.50;2.43;;;24.20;98.10;;;;;;4951706;28;20210;-83
2023/07/11 05:16:35;;;;;;;3.10;2.90;;;24.20;97.40;;;;;;4955651;29;20199;-85
2023/07/11 05:19:00;;;;;;;2.90;2.70;;;24.50;97.50;;;;;;4956023;29;20508;-84
2023/07/11 05:21:27;;;;;;;3.17;2.97;;;24.50;96.90;;;;;;4951343;28;20202;-85
2023/07/11 05:23:55;;;;;;;3.33;3.00;;;24.50;96.70;;;;;;4951375;28;20222;-84
2023/07/11 05:26:21;;;;;;;2.37;2.27;;;24.60;96.30;;;;;;4953544;28;20769;-84
2023/07/11 05:28:48;;;;;;;2.30;2.27;;;24.90;95.80;;;;;;4960810;28;20462;-85
2023/07/11 05:31:13;;;;;;;3.00;2.90;;;25.20;94.40;;;;;;4961761;28;20450;-85
2023/07/11 05:33:39;;;;;;;2.97;2.77;;;25.30;95.10;;;;;;4961907;28;20481;-85
2023/07/11 05:38:40;;;;;;;3.20;3.10;;;25.80;92.50;;;;;;4960778;29;20185;-85
2023/07/11 05:41:05;;;;;;;3.07;2.80;;;26.00;92.30;;;;;;4964125;28;20459;-84
2023/07/11 05:43:31;;;;;;;3.20;3.10;;;26.20;90.90;;;;;;4958039;28;20473;-83
2023/07/11 05:45:56;;;;;;;2.90;2.80;;;26.40;90.70;;;;;;4958643;28;20210;-85
2023/07/11 05:48:22;;;;;;;3.23;2.63;;;26.60;90.00;;;;;;4964640;29;20190;-83
2023/07/11 05:50:58;;;;;;;3.00;2.80;;;26.70;87.60;;;;;;4961298;29;20222;-83
2023/07/11 05:53:27;;;;;;;2.83;2.53;;;26.90;86.00;;;;;;4958921;28;20183;-82
2023/07/11 05:55:53;;;;;;;2.77;2.67;;;26.90;86.20;;;;;;4973359;28;20422;-84
2023/07/11 05:58:19;;;;;;;2.90;2.80;;;27.30;82.20;;;;;;4969185;28;20433;-84
2023/07/11 06:00:44;;;;;;;2.90;2.70;;;27.40;81.60;;;;;;4960708;29;20449;-85
2023/07/11 06:03:10;;;;;;;2.43;2.30;;;27.30;80.30;;;;;;4948031;29;20195;-82
2023/07/11 06:05:36;;;;;;;2.37;2.23;;;27.40;79.60;;;;;;4951481;29;20191;-83
2023/07/11 06:08:01;;;;;;;4.10;2.80;;;27.40;79.20;;;;;;4934777;29;20240;-84
2023/07/11 06:10:28;;;;;;;3.53;2.70;;;27.50;79.80;;;;;;4949116;29;20194;-82
2023/07/11 06:12:54;;;;;;;3.00;2.90;;;27.70;78.10;;;;;;4946682;29;20202;-83
2023/07/11 06:15:20;;;;;;;3.37;3.27;;;27.70;77.90;;;;;;4943459;29;20438;-83
2023/07/11 06:17:46;;;;;;;4.00;2.50;;;27.80;75.90;;;;;;4950389;29;20420;-83
2023/07/11 06:20:11;;;;;;;2.87;2.87;;;27.80;77.10;;;;;;4932760;29;20202;-82
2023/07/11 06:22:37;;;;;;;2.73;2.70;;;28.00;74.40;;;;;;4949351;28;20191;-82
2023/07/11 06:25:03;;;;;;;2.40;2.30;;;28.20;74.20;;;;;;4950541;29;20225;-84
2023/07/11 06:27:32;;;;;;;2.93;2.87;;;28.00;74.60;;;;;;4957834;28;20430;-82
2023/07/11 06:29:57;;;;;;;2.50;2.30;;;28.50;72.50;;;;;;4954280;28;20207;-83
2023/07/11 06:32:23;;;;;;;3.73;2.73;;;28.50;70.80;;;;;;4957525;29;20469;-83
2023/07/11 06:34:48;;;;;;;2.70;2.70;;;28.80;71.00;;;;;;4932969;28;20197;-85
2023/07/11 06:37:14;;;;;;;2.77;2.73;;;28.90;69.90;;;;;;4951821;29;20176;-86
2023/07/11 06:39:39;;;;;;;2.97;2.77;;;29.00;68.80;;;;;;4938484;29;20282;-85
2023/07/11 06:42:06;;;;;;;4.83;2.80;;;29.00;68.60;;;;;;4953583;28;20189;-84
2023/07/11 06:44:31;;;;;;;2.77;2.67;;;29.10;67.10;;;;;;4949006;29;20228;-81
2023/07/11 06:46:57;;;;;;;2.97;2.87;;;29.30;65.90;;;;;;4954748;29;20422;-83
2023/07/11 06:49:23;;;;;;;2.90;2.90;;;29.40;65.40;;;;;;4957330;29;20257;-83
2023/07/11 06:51:49;;;;;;;2.70;2.60;;;29.80;64.30;;;;;;4953857;29;20278;-82
2023/07/11 06:54:16;;;;;;;2.67;2.60;;;30.00;63.00;;;;;;4945003;29;20183;-83
2023/07/11 06:56:41;;;;;;;2.87;2.77;;;30.60;60.70;;;;;;4961507;29;20449;-83
2023/07/11 06:59:08;;;;;;;3.83;3.00;;;30.60;59.90;;;;;;4961260;28;20477;-82
2023/07/11 07:01:34;;;;;;;3.03;2.93;;;30.90;58.70;;;;;;4954181;29;20202;-85
2023/07/11 07:04:00;;;;;;;2.87;2.67;;;31.10;58.20;;;;;;4966111;29;20866;-84
2023/07/11 07:06:26;;;;;;;2.80;2.80;;;31.00;57.80;;;;;;4969098;29;20467;-82
2023/07/11 07:08:52;;;;;;;2.60;2.60;;;31.00;58.30;;;;;;4963669;29;20438;-83
2023/07/11 07:11:17;;;;;;;3.33;3.10;;;31.10;57.60;;;;;;4963099;29;20441;-84
2023/07/11 07:13:43;;;;;;;3.00;2.80;;;31.30;57.60;;;;;;4951589;28;20752;-84
2023/07/11 07:16:09;;;;;;;5.13;4.90;;;31.60;56.90;;;;;;4939927;29;20277;-83
2023/07/11 07:18:38;;;;;;;2.87;2.77;;;32.10;56.60;;;;;;4948633;28;20667;-85
2023/07/11 07:21:04;;;;;;;3.40;3.30;;;32.30;55.10;;;;;;4939495;28;20443;-81
2023/07/11 07:23:33;;;;;;;3.90;2.93;;;32.70;54.60;;;;;;4943926;29;21217;-83
2023/07/11 07:26:00;;;;;;;5.00;2.90;;;32.80;54.20;;;;;;4968383;29;20433;-85
2023/07/11 07:28:28;;;;;;;3.00;2.90;;;32.50;53.80;;;;;;4944915;29;20489;-84
2023/07/11 07:30:55;;;;;;;7.73;2.70;;;32.90;53.00;;;;;;4957267;29;20465;-84
2023/07/11 07:33:25;;;;;;;2.80;2.70;;;33.00;53.10;;;;;;4958617;29;20851;-84
2023/07/11 07:36:00;;;;;;;3.20;3.00;;;33.10;52.80;;;;;;4947251;28;20541;-83
2023/07/11 07:38:28;;;;;;;2.80;2.60;;;33.00;52.70;;;;;;4946241;29;20450;-83
2023/07/11 07:40:59;;;;;;;2.63;2.53;;;33.30;52.30;;;;;;4949917;28;20447;-85
2023/07/11 07:43:26;;;;;;;2.90;2.90;;;33.50;52.10;;;;;;4944119;29;20937;-83
2023/07/11 07:45:53;;;;;;;2.80;2.70;;;33.20;51.20;;;;;;4943104;28;20450;-83
2023/07/11 07:48:19;;;;;;;3.10;3.00;;;33.30;51.40;;;;;;4949685;29;21264;-84
2023/07/11 07:50:45;;;;;;;2.40;2.40;;;33.50;51.10;;;;;;4945645;28;20446;-83
2023/07/11 07:53:15;;;;;;;2.93;2.90;;;33.50;50.60;;;;;;4951867;28;20846;-84
2023/07/11 07:55:40;;;;;;;2.30;2.30;;;33.40;50.20;;;;;;4950001;29;20195;-84
2023/07/11 07:58:06;;;;;;;3.07;2.90;;;33.30;50.30;;;;;;4947653;29;20445;-83
2023/07/11 08:00:32;;;;;;;3.00;2.90;;;33.20;50.30;;;;;;4948242;29;20199;-80
2023/07/11 08:02:58;;;;;;;3.37;3.27;;;33.20;50.20;;;;;;4937520;29;21243;-79
2023/07/11 08:05:24;;;;;;;2.90;2.80;;;33.10;50.40;;;;;;4936742;29;20473;-82
2023/07/11 08:07:50;;;;;;;2.80;2.70;;;33.40;50.30;;;;;;4934384;29;20470;-82
2023/07/11 08:10:16;;;;;;;2.93;2.67;;;33.60;50.00;;;;;;4936769;29;20281;-80
2023/07/11 08:12:43;;;;;;;2.70;2.57;;;33.70;49.70;;;;;;4938908;29;20418;-83
2023/07/11 08:15:11;;;;;;;3.87;3.57;;;33.50;49.80;;;;;;4934942;29;20449;-80
2023/07/11 08:17:37;;;;;;;8.53;3.57;;;34.00;49.80;;;;;;4936966;29;20430;-82
2023/07/11 08:20:04;;;;;;;4.83;2.77;;;34.50;49.20;;;;;;4933615;28;20447;-82
2023/07/11 08:22:30;;;;;;;3.60;2.30;;;34.80;48.70;;;;;;4937282;29;20810;-82
2023/07/11 08:24:55;;;;;;;3.53;3.07;;;35.20;48.40;;;;;;4923514;28;20478;-83
2023/07/11 08:27:21;;;;;;;3.07;2.87;;;35.20;47.80;;;;;;4937079;29;20984;-82
2023/07/11 08:29:46;;;;;;;2.60;2.60;;;35.40;47.70;;;;;;4941278;29;20277;-82
2023/07/11 08:32:13;;;;;;;3.03;2.80;;;35.10;47.80;;;;;;4934364;29;20249;-80
2023/07/11 08:34:39;;;;;;;2.90;2.67;;;35.00;48.00;;;;;;4944077;28;20713;-82
2023/07/11 08:37:04;;;;;;;2.87;2.77;;;34.80;48.00;;;;;;4940237;29;20442;-82
2023/07/11 08:39:30;;;;;;;6.93;2.97;;;34.80;48.20;;;;;;4940530;29;20438;-81
2023/07/11 08:41:59;;;;;;;2.57;2.57;;;34.90;48.30;;;;;;4939386;29;20206;-81
2023/07/11 08:44:38;;;;;;;3.07;2.70;;;35.30;47.60;;;;;;4940554;28;20223;-81
2023/07/11 08:47:33;;;;;;;3.33;3.10;;;35.60;47.30;;;;;;4925151;29;20598;-81
2023/07/11 08:50:23;;;;;;;2.97;2.77;;;35.60;47.30;;;;;;4932587;28;20492;-81
2023/07/11 08:52:53;;;;;;;2.70;2.60;;;35.40;46.90;;;;;;4943770;29;20438;-81
2023/07/11 08:55:27;;;;;;;4.73;3.17;;;35.30;46.50;;;;;;4939600;28;20504;-81
2023/07/11 08:58:13;;;;;;;3.33;3.10;;;35.90;46.50;;;;;;4942795;29;20457;-82
2023/07/11 09:00:40;;;;;;;3.63;3.40;;;36.20;46.60;;;;;;4938563;28;20528;-82
2023/07/11 09:03:25;;;;;;;2.87;2.50;;;36.70;46.10;;;;;;4928143;29;20407;-81
2023/07/11 09:06:10;;;;;;;2.67;2.67;;;36.90;45.50;;;;;;4951123;28;20462;-81
2023/07/11 09:08:42;;;;;;;2.97;2.77;;;36.60;45.20;;;;;;4960606;28;21040;-81
2023/07/11 09:11:19;;;;;;;4.60;3.30;;;36.40;46.00;;;;;;4948384;28;20438;-82
2023/07/11 09:13:52;;;;;;;4.20;3.90;;;36.20;46.40;;;;;;4952001;28;20476;-80
2023/07/11 09:16:21;;;;;;;2.77;2.60;;;36.30;45.60;;;;;;4956151;29;20441;-83
2023/07/11 09:19:22;;;;;;;2.87;2.50;;;36.40;46.00;;;;;;4964308;28;20426;-81
2023/07/11 09:22:00;;;;;;;2.87;2.77;;;36.50;45.40;;;;;;4952883;29;21155;-82
2023/07/11 09:24:49;;;;;;;3.53;3.23;;;36.20;45.70;;;;;;4953806;28;20469;-82
2023/07/11 09:27:14;;;;;;;2.93;2.80;;;36.20;46.40;;;;;;4948363;29;21007;-82
2023/07/11 09:29:42;;;;;;;3.50;3.20;;;36.30;48.20;;;;;;4950279;28;20426;-82
2023/07/11 09:32:11;;;;;;;3.17;3.03;;;36.30;50.70;;;;;;4943753;28;20222;-80
2023/07/11 09:34:45;;;;;;;3.17;2.80;;;36.90;47.40;;;;;;4954020;29;20437;-83
2023/07/11 09:37:20;;;;;;;3.67;2.90;;;37.50;46.20;;;;;;4961157;29;20437;-85
2023/07/11 09:40:13;;;;;;;3.33;3.23;;;37.80;46.00;;;;;;4954525;29;20426;-83
2023/07/11 09:42:51;;;;;;;2.87;2.50;;;38.20;45.70;;;;;;4951229;29;20974;-86
2023/07/11 09:45:19;;;;;;;2.77;2.70;;;37.70;45.70;;;;;;4955333;29;20472;-85
2023/07/11 09:47:57;;;;;;;3.23;3.03;;;37.00;46.00;;;;;;4960676;29;20874;-86
2023/07/11 09:50:48;;;;;;;3.10;3.00;;;36.50;46.20;;;;;;4950523;29;20435;-86
2023/07/11 09:53:19;;;;;;;2.73;2.50;;;35.70;46.50;;;;;;4950573;29;20429;-81
2023/07/11 09:55:44;;;;;;;3.33;2.70;;;35.10;47.20;;;;;;4935261;28;20454;-82
2023/07/11 09:58:16;;;;;;;8.80;6.97;;;35.00;46.60;;;;;;4944905;29;20418;-83
2023/07/11 10:00:50;;;;;;;2.73;2.53;;;35.60;46.60;;;;;;4925126;28;20198;-81
2023/07/11 10:03:25;;;;;;;5.17;3.20;;;36.60;46.70;;;;;;4931017;29;20458;-82
2023/07/11 10:05:52;;;;;;;2.90;2.80;;;37.50;46.00;;;;;;4944405;29;20482;-83
2023/07/11 10:08:21;;;;;;;3.47;3.13;;;37.70;45.00;;;;;;4949653;29;20834;-84
2023/07/11 10:10:49;;;;;;;3.67;3.37;;;36.90;45.40;;;;;;4943231;29;20668;-81
2023/07/11 10:13:16;;;;;;;3.30;2.70;;;36.90;45.90;;;;;;4950155;29;20985;-84
2023/07/11 10:15:43;;;;;;;2.27;2.27;;;37.10;46.00;;;;;;4948591;28;20430;-82
2023/07/11 10:18:24;;;;;;;2.77;2.53;;;37.00;44.80;;;;;;4943229;28;20950;-81
2023/07/11 10:21:06;;;;;;;2.67;2.67;;;37.30;44.10;;;;;;4939822;29;20426;-81
2023/07/11 10:23:34;;;;;;;3.80;2.07;;;37.30;42.50;;;;;;4937954;28;20465;-82
2023/07/11 10:26:24;;;;;;;2.23;2.10;;;37.50;42.70;;;;;;4948608;29;20441;-82
2023/07/11 10:29:12;;;;;;;2.33;2.20;;;37.40;42.00;;;;;;4943658;28;21052;-82
2023/07/11 10:31:44;;;;;;;2.87;2.40;;;37.20;41.80;;;;;;4938881;29;20464;-81
2023/07/11 10:34:29;;;;;;;2.13;2.13;;;37.60;41.10;;;;;;4942096;28;20457;-82
2023/07/11 10:37:04;;;;;;;5.60;5.30;;;37.80;42.20;;;;;;4946347;28;20449;-83
2023/07/11 10:39:42;;;;;;;2.20;2.10;;;38.40;42.20;;;;;;4943668;28;20438;-82
2023/07/11 10:42:22;;;;;;;2.60;2.50;;;38.90;42.50;;;;;;4950965;29;20976;-83
2023/07/11 10:44:53;;;;;;;2.37;2.37;;;39.30;42.20;;;;;;4940144;29;20632;-82
2023/07/11 10:47:27;;;;;;;4.80;3.57;;;39.60;42.00;;;;;;4946040;28;20934;-81
2023/07/11 10:49:56;;;;;;;2.63;2.17;;;39.50;42.30;;;;;;4941069;28;20446;-83
2023/07/11 10:52:27;;;;;;;2.60;2.47;;;40.10;42.00;;;;;;4951296;29;20548;-81
2023/07/11 10:54:59;;;;;;;2.50;2.40;;;39.90;41.10;;;;;;4951307;28;20794;-83
2023/07/11 10:57:41;;;;;;;2.63;2.43;;;39.60;41.60;;;;;;4946971;28;20433;-83
2023/07/11 11:00:23;;;;;;;3.10;2.90;;;39.70;41.90;;;;;;4950323;29;20418;-84
2023/07/11 11:03:02;;;;;;;3.37;3.20;;;39.40;42.50;;;;;;4938516;29;20584;-83
2023/07/11 11:05:57;;;;;;;3.50;3.20;;;39.00;42.80;;;;;;4970163;28;20419;-83
2023/07/11 11:08:28;;;;;;;3.17;3.07;;;39.10;43.40;;;;;;4941052;29;20440;-83
2023/07/11 11:11:05;;;;;;;3.20;3.10;;;38.60;44.00;;;;;;4937236;29;20433;-83
2023/07/11 11:13:40;;;;;;;3.13;3.03;;;38.60;44.80;;;;;;4947585;28;20446;-83
2023/07/11 11:16:12;;;;;;;2.90;2.80;;;39.10;48.70;;;;;;4953510;28;20419;-82
2023/07/11 11:18:56;;;;;;;4.93;2.77;;;39.30;50.30;;;;;;4950961;29;20458;-84
2023/07/11 11:21:40;;;;;;;3.13;3.03;;;39.40;48.00;;;;;;4953758;29;20437;-81
2023/07/11 11:24:43;;;;;;;2.97;2.47;;;39.70;48.60;;;;;;4947300;28;20520;-84
2023/07/11 11:27:36;;;;;;;2.73;2.63;;;39.30;49.10;;;;;;4955619;28;20494;-85
2023/07/11 11:30:02;;;;;;;2.40;2.30;;;38.90;49.00;;;;;;4945962;28;20497;-84
2023/07/11 11:32:44;;;;;;;3.10;2.90;;;39.70;48.70;;;;;;4950942;28;20915;-80
2023/07/11 11:35:28;;;;;;;2.87;2.80;;;39.30;47.90;;;;;;4950231;29;20414;-81
2023/07/11 11:38:20;;;;;;;3.10;3.00;;;38.90;48.30;;;;;;4950773;28;20442;-83
2023/07/11 11:40:51;;;;;;;3.30;2.80;;;38.70;48.20;;;;;;4951788;28;20454;-82
2023/07/11 11:43:25;;;;;;;3.40;3.30;;;40.60;39.30;;;;;;4944164;28;20442;-84
2023/07/11 11:45:51;;;;;;;5.97;3.50;;;40.60;39.60;;;;;;4945788;28;20601;-83
2023/07/11 11:48:21;;;;;;;2.93;2.93;;;40.90;39.50;;;;;;4944959;28;20442;-84
2023/07/11 11:50:47;;;;;;;3.47;3.40;;;41.60;37.50;;;;;;4948746;28;20817;-84
2023/07/11 11:53:19;;;;;;;3.67;3.53;;;41.50;38.20;;;;;;4946144;28;20473;-82
2023/07/11 11:56:19;;;;;;;4.00;3.77;;;41.20;37.40;;;;;;4952726;28;20478;-82
2023/07/11 11:58:52;;;;;;;3.97;3.67;;;40.70;37.50;;;;;;4911974;29;20456;-82
2023/07/11 12:01:41;;;;;;;3.87;3.53;;;40.10;38.00;;;;;;4900473;29;20441;-84
2023/07/11 12:04:42;;;;;;;4.13;3.93;;;40.60;38.00;;;;;;4943642;29;20470;-83
2023/07/11 12:07:10;;;;;;;4.47;4.27;;;40.30;37.80;;;;;;4938537;28;20991;-83
2023/07/11 12:09:53;;;;;;;3.70;3.60;;;40.20;38.30;;;;;;4945848;28;20458;-84
2023/07/11 12:12:34;;;;;;;3.73;3.53;;;40.20;37.80;;;;;;4945575;29;21003;-82
2023/07/11 12:15:18;;;;;;;3.83;3.60;;;40.30;38.10;;;;;;4955853;28;20422;-79
2023/07/11 12:17:46;;;;;;;4.30;4.10;;;40.90;37.70;;;;;;4950724;28;20496;-82
2023/07/11 12:20:20;;;;;;;4.63;4.40;;;40.70;37.30;;;;;;4956950;29;20406;-83
2023/07/11 12:22:46;;;;;;;3.57;3.50;;;41.10;37.30;;;;;;4950030;28;20445;-83
2023/07/11 12:25:20;;;;;;;3.60;3.50;;;41.20;37.10;;;;;;4954504;29;20512;-82
2023/07/11 12:28:00;;;;;;;3.83;3.70;;;41.80;37.00;;;;;;4951065;28;20210;-83
2023/07/11 12:30:26;;;;;;;4.03;3.83;;;42.30;37.00;;;;;;4949850;29;20504;-83
2023/07/11 12:32:56;;;;;;;3.80;3.70;;;42.00;36.40;;;;;;4944732;28;20908;-83
2023/07/11 12:35:24;;;;;;;3.40;3.30;;;42.30;36.40;;;;;;4947735;29;20195;-82
2023/07/11 12:38:02;;;;;;;3.60;3.60;;;41.90;36.30;;;;;;4951926;29;21316;-82
2023/07/11 12:41:00;;;;;;;3.83;3.83;;;42.00;36.30;;;;;;4951253;29;20498;-82
2023/07/11 12:43:33;;;;;;;4.23;4.13;;;42.00;36.60;;;;;;4952064;28;20442;-80
2023/07/11 12:46:02;;;;;;;4.83;4.37;;;41.60;36.60;;;;;;4952217;28;20438;-83
2023/07/11 12:48:37;;;;;;;4.87;4.40;;;41.40;36.70;;;;;;4946063;29;20440;-83
2023/07/11 12:51:05;;;;;;;3.90;3.90;;;41.20;37.10;;;;;;4946762;29;20413;-84
2023/07/11 12:53:35;;;;;;;4.03;3.90;;;40.90;37.20;;;;;;4956244;29;21110;-85
2023/07/11 12:56:03;;;;;;;4.10;4.00;;;41.30;36.80;;;;;;4944623;29;20418;-84
2023/07/11 12:58:31;;;;;;;5.20;4.80;;;41.50;37.10;;;;;;4942502;28;20443;-82
2023/07/11 13:00:58;;;;;;;3.80;3.70;;;41.70;37.00;;;;;;4951465;29;20508;-82
2023/07/11 13:03:36;;;;;;;3.20;3.17;;;41.80;36.60;;;;;;4955097;29;20438;-84